createdAt,value
2018-11-14T00:02:25.919Z,11.20
2018-11-14T00:06:28.366Z,11.40
2018-11-14T00:10:30.831Z,11.50
2018-11-14T00:14:33.192Z,11.00
2018-11-14T00:18:35.506Z,11.20
2018-11-14T00:22:38.239Z,11.30
2018-11-14T00:26:40.562Z,11.10
2018-11-14T00:30:42.941Z,11.20
2018-11-14T00:34:45.396Z,11.60
2018-11-14T00:38:47.641Z,11.60
2018-11-14T00:42:50.371Z,11.40
2018-11-14T00:46:52.718Z,11.30
2018-11-14T00:50:55.334Z,11.10
2018-11-14T00:54:57.686Z,10.90
2018-11-14T00:58:59.997Z,11.20
2018-11-14T01:03:02.361Z,11.70
2018-11-14T01:07:04.789Z,11.50
2018-11-14T01:11:07.184Z,11.10
2018-11-14T01:15:11.853Z,11.20
2018-11-14T01:19:14.260Z,11.20
2018-11-14T01:23:16.603Z,11.00
2018-11-14T01:27:18.951Z,10.60
2018-11-14T01:31:22.280Z,10.80
2018-11-14T01:35:24.900Z,11.30
2018-11-14T01:39:27.250Z,11.00
2018-11-14T01:43:30.538Z,11.00
2018-11-14T01:47:33.336Z,11.10
2018-11-14T01:51:35.711Z,11.40
2018-11-14T01:55:38.026Z,11.20
2018-11-14T01:59:40.345Z,11.30
2018-11-14T02:03:42.728Z,11.60
2018-11-14T02:07:45.092Z,11.60
2018-11-14T02:11:48.690Z,11.10
2018-11-14T02:15:51.118Z,11.40
2018-11-14T02:19:53.505Z,11.40
2018-11-14T02:23:56.107Z,11.40
2018-11-14T02:27:58.480Z,11.30
2018-11-14T02:32:00.938Z,11.30
2018-11-14T02:36:03.355Z,11.30
2018-11-14T02:40:08.128Z,10.90
2018-11-14T02:44:10.510Z,10.60
2018-11-14T02:48:12.920Z,10.70
2018-11-14T02:52:15.493Z,10.60
2018-11-14T02:56:17.838Z,10.50
2018-11-14T03:00:21.145Z,10.20
2018-11-14T03:04:23.457Z,10.20
2018-11-14T03:08:25.833Z,9.90
2018-11-14T03:12:29.421Z,10.00
2018-11-14T03:16:32.385Z,10.10
2018-11-14T03:20:34.877Z,9.70
2018-11-14T03:24:37.289Z,9.90
2018-11-14T03:28:39.664Z,9.90
2018-11-14T03:32:42.842Z,9.80
2018-11-14T03:36:45.218Z,9.90
2018-11-14T03:40:47.711Z,10.00
2018-11-14T03:44:50.741Z,10.00
2018-11-14T03:48:53.158Z,9.80
2018-11-14T03:52:55.519Z,9.70
2018-11-14T03:56:57.895Z,9.50
2018-11-14T04:01:00.463Z,9.70
2018-11-14T04:05:02.996Z,9.40
2018-11-14T04:09:08.588Z,9.40
2018-11-14T04:13:10.897Z,9.30
2018-11-14T04:17:13.266Z,9.10
2018-11-14T04:21:15.589Z,9.10
2018-11-14T04:25:19.093Z,9.20
2018-11-14T04:29:21.564Z,9.10
2018-11-14T04:33:23.921Z,8.60
2018-11-14T04:37:26.233Z,8.60
2018-11-14T04:41:28.583Z,8.60
2018-11-14T04:45:30.923Z,9.10
2018-11-14T04:49:33.324Z,9.10
2018-11-14T04:53:35.665Z,8.80
2018-11-14T04:57:38.392Z,8.80
2018-11-14T05:01:40.782Z,9.10
2018-11-14T05:05:43.104Z,9.20
2018-11-14T05:09:45.437Z,9.00
2018-11-14T05:13:47.709Z,8.90
2018-11-14T05:17:50.698Z,8.40
2018-11-14T05:21:53.017Z,8.00
2018-11-14T05:25:55.352Z,8.30
2018-11-14T05:29:57.710Z,8.10
2018-11-14T05:34:00.124Z,8.30
2018-11-14T05:38:02.499Z,8.50
2018-11-14T05:42:04.906Z,8.40
2018-11-14T05:46:07.273Z,8.20
2018-11-14T05:50:11.942Z,7.70
2018-11-14T05:54:14.327Z,8.10
2018-11-14T05:58:16.658Z,7.60
2018-11-14T06:02:18.997Z,8.20
2018-11-14T06:06:21.353Z,8.40
2018-11-14T06:10:23.763Z,8.60
2018-11-14T06:14:26.083Z,8.60
2018-11-14T06:18:28.500Z,8.30
2018-11-14T06:22:30.862Z,8.20
2018-11-14T06:26:33.238Z,8.60
2018-11-14T06:30:36.264Z,8.10
2018-11-14T06:34:39.348Z,7.60
2018-11-14T06:38:42.595Z,6.80
2018-11-14T06:42:45.103Z,6.40
2018-11-14T06:46:47.626Z,6.70
2018-11-14T06:50:50.039Z,7.50
2018-11-14T06:54:52.417Z,8.00
2018-11-14T06:58:54.907Z,8.00
2018-11-14T07:02:57.820Z,8.20
2018-11-14T07:07:00.447Z,8.20
2018-11-14T07:11:03.100Z,8.20
2018-11-14T07:15:08.103Z,8.20
2018-11-14T07:19:10.783Z,8.40
2018-11-14T07:23:13.157Z,8.60
2018-11-14T07:27:15.578Z,8.50
2018-11-14T07:31:18.350Z,7.90
2018-11-14T07:35:20.802Z,7.80
2018-11-14T07:39:23.153Z,7.80
2018-11-14T07:43:25.506Z,7.70
2018-11-14T07:47:28.032Z,8.00
2018-11-14T07:51:30.471Z,8.20
2018-11-14T07:55:32.799Z,8.40
2018-11-14T07:59:35.165Z,8.70
2018-11-14T08:03:37.551Z,8.70
2018-11-14T08:07:39.915Z,9.20
2018-11-14T08:11:42.328Z,9.50
2018-11-14T08:15:44.691Z,9.90
2018-11-14T08:19:47.046Z,10.10
2018-11-14T08:23:49.426Z,10.30
2018-11-14T08:27:51.911Z,10.40
2018-11-14T08:31:54.278Z,10.80
2018-11-14T08:35:56.608Z,11.00
2018-11-14T08:39:58.923Z,11.30
2018-11-14T08:44:01.361Z,11.20
2018-11-14T08:48:04.365Z,11.20
2018-11-14T08:52:06.772Z,11.20
2018-11-14T08:56:09.113Z,11.40
2018-11-14T09:00:14.492Z,11.70
2018-11-14T09:04:16.831Z,11.50
2018-11-14T09:08:19.323Z,11.80
2018-11-14T09:12:21.688Z,11.50
2018-11-14T09:16:24.118Z,12.10
2018-11-14T09:20:27.560Z,12.50
2018-11-14T09:24:30.422Z,12.60
2018-11-14T09:28:32.807Z,10.80
2018-11-14T09:32:35.235Z,11.30
2018-11-14T09:36:37.611Z,11.70
2018-11-14T09:40:40.115Z,11.60
2018-11-14T09:44:42.472Z,12.30
2018-11-14T09:48:44.825Z,12.90
2018-11-14T09:52:49.590Z,13.20
2018-11-14T09:56:51.996Z,13.60
2018-11-14T10:00:54.340Z,14.00
2018-11-14T10:04:56.746Z,14.20
2018-11-14T10:08:59.198Z,14.10
2018-11-14T10:13:01.527Z,14.50
2018-11-14T10:17:03.925Z,12.90
2018-11-14T10:21:06.494Z,13.40
2018-11-14T10:25:09.381Z,13.50
2018-11-14T10:29:11.777Z,14.00
2018-11-14T10:33:14.200Z,14.30
2018-11-14T10:37:16.635Z,14.10
2018-11-14T10:41:18.985Z,13.90
2018-11-14T10:45:22.522Z,14.40
2018-11-14T10:49:24.955Z,13.30
2018-11-14T10:53:27.363Z,13.10
2018-11-14T10:57:29.792Z,14.10
2018-11-14T11:01:37.920Z,14.30
2018-11-14T11:05:45.967Z,14.60
2018-11-14T11:09:54.038Z,14.70
2018-11-14T11:14:11.129Z,15.00
2018-11-14T11:18:15.000Z,14.40
2018-11-14T11:22:17.338Z,14.80
2018-11-14T11:26:19.713Z,14.80
2018-11-14T11:30:22.160Z,15.10
2018-11-14T11:34:24.583Z,15.50
2018-11-14T11:38:27.040Z,16.10
2018-11-14T11:42:29.486Z,16.20
2018-11-14T11:46:31.852Z,16.60
2018-11-14T11:50:34.218Z,16.30
2018-11-14T11:54:36.525Z,17.10
2018-11-14T11:58:38.961Z,16.40
2018-11-14T12:02:42.311Z,16.70
2018-11-14T12:06:44.694Z,16.60
2018-11-14T12:10:47.196Z,15.70
2018-11-14T12:14:49.490Z,16.80
2018-11-14T12:18:51.888Z,17.30
2018-11-14T12:22:54.318Z,18.00
2018-11-14T12:26:56.723Z,18.00
2018-11-14T12:30:59.505Z,16.60
2018-11-14T12:35:02.032Z,17.40
2018-11-14T12:39:06.607Z,17.50
2018-11-14T12:43:08.992Z,17.60
2018-11-14T12:47:11.344Z,18.30
2018-11-14T12:51:13.745Z,17.80
2018-11-14T12:55:17.396Z,17.40
2018-11-14T12:59:20.424Z,17.20
2018-11-14T13:03:22.798Z,17.10
2018-11-14T13:07:25.210Z,16.80
2018-11-14T13:11:27.588Z,17.10
2018-11-14T13:15:29.942Z,16.90
2018-11-14T13:19:32.373Z,16.40
2018-11-14T13:23:34.744Z,16.40
2018-11-14T13:27:37.169Z,16.00
2018-11-14T13:31:39.541Z,15.50
2018-11-14T13:35:44.074Z,15.70
2018-11-14T13:39:46.887Z,15.90
2018-11-14T13:43:49.285Z,14.80
2018-11-14T13:47:51.645Z,16.00
2018-11-14T13:51:55.010Z,15.30
2018-11-14T13:55:57.459Z,15.10
2018-11-14T13:59:59.779Z,14.90
2018-11-14T14:04:02.488Z,14.70
2018-11-14T14:08:05.304Z,14.70
2018-11-14T14:12:07.714Z,14.30
2018-11-14T14:16:10.213Z,15.10
2018-11-14T14:20:13.463Z,15.70
2018-11-14T14:24:15.904Z,15.50
2018-11-14T14:28:18.249Z,15.40
2018-11-14T14:32:20.842Z,14.50
2018-11-14T14:36:23.469Z,15.10
2018-11-14T14:40:25.897Z,14.10
2018-11-14T14:44:28.267Z,14.60
2018-11-14T14:48:30.755Z,13.50
2018-11-14T14:52:33.159Z,14.80
2018-11-14T14:56:35.530Z,14.50
2018-11-14T15:00:37.989Z,14.40
2018-11-14T15:04:40.931Z,14.70
2018-11-14T15:08:43.300Z,14.60
2018-11-14T15:12:45.779Z,12.90
2018-11-14T15:16:48.136Z,12.80
2018-11-14T15:20:50.673Z,12.50
2018-11-14T15:24:53.149Z,11.70
2018-11-14T15:28:55.605Z,11.30
2018-11-14T15:32:58.174Z,10.60
2018-11-14T15:37:00.631Z,10.30
2018-11-14T15:41:03.159Z,10.80
2018-11-14T15:45:07.390Z,10.90
2018-11-14T15:49:09.931Z,10.60
2018-11-14T15:53:12.387Z,11.10
2018-11-14T15:57:16.303Z,12.00
2018-11-14T16:01:18.736Z,12.60
2018-11-14T16:05:22.288Z,13.10
2018-11-14T16:09:24.631Z,13.40
2018-11-14T16:13:27.012Z,13.60
2018-11-14T16:17:29.507Z,12.10
2018-11-14T16:21:31.995Z,11.90
2018-11-14T16:25:34.469Z,12.40
2018-11-14T16:29:36.889Z,12.70
2018-11-14T16:33:39.307Z,12.90
2018-11-14T16:37:42.213Z,11.70
2018-11-14T16:41:44.585Z,12.20
2018-11-14T16:45:47.030Z,12.10
2018-11-14T16:49:49.548Z,12.80
2018-11-14T16:53:52.153Z,13.00
2018-11-14T16:57:55.532Z,12.40
2018-11-14T17:01:57.934Z,12.40
2018-11-14T17:06:00.372Z,12.20
2018-11-14T17:10:02.886Z,10.70
2018-11-14T17:14:05.444Z,11.90
2018-11-14T17:18:07.914Z,12.10
2018-11-14T17:22:10.347Z,12.40
2018-11-14T17:26:12.796Z,12.80
2018-11-14T17:30:25.212Z,12.40
2018-11-14T17:34:27.708Z,11.80
2018-11-14T17:38:30.107Z,11.60
2018-11-14T17:42:32.802Z,9.90
2018-11-14T17:46:34.893Z,10.40
2018-11-14T17:50:37.368Z,11.40
2018-11-14T17:54:39.717Z,11.60
2018-11-14T17:58:42.162Z,10.80
2018-11-14T18:02:44.940Z,10.70
2018-11-14T18:06:47.322Z,10.50
2018-11-14T18:10:49.847Z,9.80
2018-11-14T18:14:52.471Z,10.40
2018-11-14T18:18:54.996Z,9.70
2018-11-14T18:22:57.815Z,9.40
2018-11-14T18:27:00.259Z,9.70
2018-11-14T18:31:02.756Z,10.00
2018-11-14T18:35:08.735Z,9.90
2018-11-14T18:39:12.832Z,9.20
2018-11-14T18:43:15.296Z,8.80
2018-11-14T18:47:17.753Z,9.40
2018-11-14T18:51:20.747Z,8.80
2018-11-14T18:55:24.656Z,9.40
2018-11-14T18:59:28.045Z,10.00
2018-11-14T19:03:30.516Z,10.00
2018-11-14T19:07:33.128Z,9.60
2018-11-14T19:11:35.697Z,10.70
2018-11-14T19:15:38.181Z,7.80
2018-11-14T19:19:40.772Z,9.00
2018-11-14T19:23:43.351Z,9.60
2018-11-14T19:27:47.583Z,10.30
2018-11-14T19:31:50.126Z,10.70
2018-11-14T19:35:52.747Z,10.90
2018-11-14T19:39:55.364Z,10.20
2018-11-14T19:43:58.076Z,10.10
2018-11-14T19:48:01.271Z,10.00
2018-11-14T19:52:03.867Z,10.10
2018-11-14T19:56:06.570Z,10.20
2018-11-14T20:00:13.222Z,9.90
2018-11-14T20:04:15.726Z,9.90
2018-11-14T20:08:18.620Z,8.10
2018-11-14T20:12:27.805Z,10.50
2018-11-14T20:16:30.416Z,9.30
2018-11-14T20:20:34.390Z,10.10
2018-11-14T20:24:36.872Z,9.50
2018-11-14T20:28:39.496Z,10.30
2018-11-14T20:32:42.221Z,9.60
2018-11-14T20:36:44.764Z,11.20
2018-11-14T20:40:47.445Z,9.20
2018-11-14T20:44:50.080Z,9.60
2018-11-14T20:48:52.510Z,9.60
2018-11-14T20:52:58.591Z,9.00
2018-11-14T20:57:00.981Z,9.00
2018-11-14T21:01:04.259Z,8.30
2018-11-14T21:05:08.266Z,9.90
2018-11-14T21:09:11.972Z,9.50
2018-11-14T21:13:14.340Z,9.90
2018-11-14T21:17:16.711Z,10.50
2018-11-14T21:21:19.408Z,10.30
2018-11-14T21:25:22.811Z,10.70
2018-11-14T21:29:25.462Z,8.90
2018-11-14T21:33:27.910Z,9.80
2018-11-14T21:37:31.700Z,9.60
2018-11-14T21:41:34.276Z,9.60
2018-11-14T21:45:38.291Z,9.90
2018-11-14T21:49:41.907Z,10.90
2018-11-14T21:53:44.303Z,11.40
2018-11-14T21:57:46.749Z,10.40
2018-11-14T22:01:49.162Z,10.50
2018-11-14T22:05:51.595Z,10.10
2018-11-14T22:09:53.958Z,10.50
2018-11-14T22:13:56.374Z,10.30
2018-11-14T22:17:58.871Z,11.20
2018-11-14T22:22:01.666Z,10.90
2018-11-14T22:26:04.113Z,8.80
2018-11-14T22:30:09.290Z,9.30
2018-11-14T22:34:11.816Z,9.90
2018-11-14T22:38:14.403Z,10.60
2018-11-14T22:42:16.820Z,10.00
2018-11-14T22:46:19.195Z,9.40
2018-11-14T22:50:22.841Z,10.80
2018-11-14T22:54:25.567Z,9.90
2018-11-14T22:58:27.883Z,11.10
2018-11-14T23:02:30.524Z,10.00
2018-11-14T23:06:32.904Z,10.50
2018-11-14T23:10:35.288Z,10.50
2018-11-14T23:14:37.711Z,10.10
2018-11-14T23:18:40.113Z,10.30
2018-11-14T23:22:43.236Z,10.60
2018-11-14T23:26:45.605Z,10.60
2018-11-14T23:30:47.928Z,9.70
2018-11-14T23:34:55.989Z,8.50
2018-11-14T23:38:58.267Z,8.30
2018-11-14T23:43:00.970Z,9.00
2018-11-14T23:47:03.298Z,9.90
2018-11-14T23:51:06.193Z,10.60
2018-11-14T23:55:08.759Z,10.50
2018-11-14T23:59:11.086Z,11.40
